sensor_id;sensor_type;location;lat;lon;timestamp;pressure;altitude;pressure_sealevel;temperature;humidity
44734;BME280;30462;52.446;-1.930;2023-04-19T00:00:18;101426.0313;;;;
44734;BME280;30462;52.446;-1.930;2023-04-19T00:01:17;101425.1406;;;;
44734;BME280;30462;52.446;-1.930;2023-04-19T00:02:18;101425.0977;;;;
44734;BME280;30462;52.446;-1.930;2023-04-19T00:03:18;101422.6875;;;;
44734;BME280;30462;52.446;-1.930;2023-04-19T00:04:18;101421.1523;;;;
44734;BME280;30462;52.446;-1.930;2023-04-19T00:05:18;101422.1953;;;;
44734;BME280;30462;52.446;-1.930;2023-04-19T00:06:18;101419.3477;;;;
44734;BME280;30462;52.446;-1.930;2023-04-19T00:07:18;101423.5703;;;;
44734;BME280;30462;52.446;-1.930;2023-04-19T00:08:18;101422.1328;;;;
44734;BME280;30462;52.446;-1.930;2023-04-19T00:09:18;101418.5664;;;;
44734;BME280;30462;52.446;-1.930;2023-04-19T00:10:18;101417.2109;;;;
44734;BME280;30462;52.446;-1.930;2023-04-19T00:11:18;101418.2656;;;;
44734;BME280;30462;52.446;-1.930;2023-04-19T00:12:18;101421.5352;;;;
44734;BME280;30462;52.446;-1.930;2023-04-19T00:13:18;101418.4023;;;;
44734;BME280;30462;52.446;-1.930;2023-04-19T00:14:18;101423.4453;;;;
44734;BME280;30462;52.446;-1.930;2023-04-19T00:15:18;101420.2109;;;;
44734;BME280;30462;52.446;-1.930;2023-04-19T00:16:18;101420.7188;;;;
44734;BME280;30462;52.446;-1.930;2023-04-19T00:17:18;101417.8672;;;;
44734;BME280;30462;52.446;-1.930;2023-04-19T00:18:18;101417.7461;;;;
44734;BME280;30462;52.446;-1.930;2023-04-19T00:19:18;101417.7578;;;;
44734;BME280;30462;52.446;-1.930;2023-04-19T00:20:19;101411.7266;;;;
44734;BME280;30462;52.446;-1.930;2023-04-19T00:21:18;101411.6914;;;;
44734;BME280;30462;52.446;-1.930;2023-04-19T00:22:18;101411.2461;;;;
44734;BME280;30462;52.446;-1.930;2023-04-19T00:23:18;101412.8203;;;;
44734;BME280;30462;52.446;-1.930;2023-04-19T00:24:18;101410.9727;;;;
44734;BME280;30462;52.446;-1.930;2023-04-19T00:25:18;101411.3008;;;;
44734;BME280;30462;52.446;-1.930;2023-04-19T00:26:18;101413.9258;;;;
44734;BME280;30462;52.446;-1.930;2023-04-19T00:27:18;101412.2891;;;;
44734;BME280;30462;52.446;-1.930;2023-04-19T00:28:18;101417.4766;;;;
44734;BME280;30462;52.446;-1.930;2023-04-19T00:29:18;101406.7344;;;;
44734;BME280;30462;52.446;-1.930;2023-04-19T00:30:18;101409.1211;;;;
44734;BME280;30462;52.446;-1.930;2023-04-19T00:31:18;101409.4961;;;;
44734;BME280;30462;52.446;-1.930;2023-04-19T00:32:18;101406.668;;;;
44734;BME280;30462;52.446;-1.930;2023-04-19T00:33:18;101409.9844;;;;
44734;BME280;30462;52.446;-1.930;2023-04-19T00:34:18;101406.7695;;;;
44734;BME280;30462;52.446;-1.930;2023-04-19T00:35:18;101405.5234;;;;
44734;BME280;30462;52.446;-1.930;2023-04-19T00:36:17;101409.332;;;;
44734;BME280;30462;52.446;-1.930;2023-04-19T00:37:17;101402.3672;;;;
44734;BME280;30462;52.446;-1.930;2023-04-19T00:38:18;101407.9219;;;;
44734;BME280;30462;52.446;-1.930;2023-04-19T00:39:18;101405.1289;;;;
44734;BME280;30462;52.446;-1.930;2023-04-19T00:40:19;101406.3906;;;;
44734;BME280;30462;52.446;-1.930;2023-04-19T00:41:18;101405.6172;;;;
44734;BME280;30462;52.446;-1.930;2023-04-19T00:42:18;101404.7109;;;;
44734;BME280;30462;52.446;-1.930;2023-04-19T00:43:18;101403.8203;;;;
44734;BME280;30462;52.446;-1.930;2023-04-19T00:44:18;101403.8398;;;;
44734;BME280;30462;52.446;-1.930;2023-04-19T00:45:18;101405.0703;;;;
44734;BME280;30462;52.446;-1.930;2023-04-19T00:46:18;101402.2031;;;;
44734;BME280;30462;52.446;-1.930;2023-04-19T00:47:18;101399.3633;;;;
44734;BME280;30462;52.446;-1.930;2023-04-19T00:48:18;101398.6172;;;;
44734;BME280;30462;52.446;-1.930;2023-04-19T00:49:18;101397.9805;;;;
44734;BME280;30462;52.446;-1.930;2023-04-19T00:50:18;101397.4727;;;;
44734;BME280;30462;52.446;-1.930;2023-04-19T00:51:18;101404.3672;;;;
44734;BME280;30462;52.446;-1.930;2023-04-19T00:52:17;101401.2109;;;;
44734;BME280;30462;52.446;-1.930;2023-04-19T00:53:18;101400.168;;;;
44734;BME280;30462;52.446;-1.930;2023-04-19T00:54:18;101398.9805;;;;
44734;BME280;30462;52.446;-1.930;2023-04-19T00:55:18;101400.1992;;;;
44734;BME280;30462;52.446;-1.930;2023-04-19T00:56:18;101401.6523;;;;
44734;BME280;30462;52.446;-1.930;2023-04-19T00:57:18;101402.7227;;;;
44734;BME280;30462;52.446;-1.930;2023-04-19T00:58:18;101399.3828;;;;
44734;BME280;30462;52.446;-1.930;2023-04-19T00:59:18;101400.8398;;;;
44734;BME280;30462;52.446;-1.930;2023-04-19T01:00:18;101392.0273;;;;
44734;BME280;30462;52.446;-1.930;2023-04-19T01:01:18;101399.0352;;;;
44734;BME280;30462;52.446;-1.930;2023-04-19T01:02:18;101393.4961;;;;
44734;BME280;30462;52.446;-1.930;2023-04-19T01:03:18;101392.0547;;;;
44734;BME280;30462;52.446;-1.930;2023-04-19T01:04:18;101389.3828;;;;
44734;BME280;30462;52.446;-1.930;2023-04-19T01:05:18;101386.9492;;;;
44734;BME280;30462;52.446;-1.930;2023-04-19T01:06:18;101392.1172;;;;
44734;BME280;30462;52.446;-1.930;2023-04-19T01:07:18;101393.3477;;;;
44734;BME280;30462;52.446;-1.930;2023-04-19T01:08:18;101387.1719;;;;
44734;BME280;30462;52.446;-1.930;2023-04-19T01:09:18;101387.0703;;;;
44734;BME280;30462;52.446;-1.930;2023-04-19T01:10:18;101385.0703;;;;
44734;BME280;30462;52.446;-1.930;2023-04-19T01:11:18;101388.8945;;;;
44734;BME280;30462;52.446;-1.930;2023-04-19T01:12:18;101383.7852;;;;
44734;BME280;30462;52.446;-1.930;2023-04-19T01:13:18;101388.2695;;;;
44734;BME280;30462;52.446;-1.930;2023-04-19T01:14:18;101384.8555;;;;
44734;BME280;30462;52.446;-1.930;2023-04-19T01:15:18;101388.8945;;;;
44734;BME280;30462;52.446;-1.930;2023-04-19T01:16:18;101380.3672;;;;
44734;BME280;30462;52.446;-1.930;2023-04-19T01:17:18;101379.7148;;;;
44734;BME280;30462;52.446;-1.930;2023-04-19T01:18:18;101374.7383;;;;
44734;BME280;30462;52.446;-1.930;2023-04-19T01:19:17;101375.7969;;;;
44734;BME280;30462;52.446;-1.930;2023-04-19T01:20:18;101381.7773;;;;
44734;BME280;30462;52.446;-1.930;2023-04-19T01:21:18;101383.3398;;;;
44734;BME280;30462;52.446;-1.930;2023-04-19T01:22:18;101381.3633;;;;
44734;BME280;30462;52.446;-1.930;2023-04-19T01:23:18;101378.2422;;;;
44734;BME280;30462;52.446;-1.930;2023-04-19T01:24:18;101378.082;;;;
44734;BME280;30462;52.446;-1.930;2023-04-19T01:25:18;101373.6406;;;;
44734;BME280;30462;52.446;-1.930;2023-04-19T01:26:19;101376.2656;;;;
44734;BME280;30462;52.446;-1.930;2023-04-19T01:27:18;101376.9375;;;;
44734;BME280;30462;52.446;-1.930;2023-04-19T01:28:17;101376.5391;;;;
44734;BME280;30462;52.446;-1.930;2023-04-19T01:29:18;101374.6328;;;;
44734;BME280;30462;52.446;-1.930;2023-04-19T01:30:18;101379.3906;;;;
44734;BME280;30462;52.446;-1.930;2023-04-19T01:31:18;101372.8359;;;;
44734;BME280;30462;52.446;-1.930;2023-04-19T01:32:18;101377.2188;;;;
44734;BME280;30462;52.446;-1.930;2023-04-19T01:33:18;101370.2539;;;;
44734;BME280;30462;52.446;-1.930;2023-04-19T01:34:18;101367.5352;;;;
44734;BME280;30462;52.446;-1.930;2023-04-19T01:35:18;101369.082;;;;
44734;BME280;30462;52.446;-1.930;2023-04-19T01:36:18;101367.1094;;;;
44734;BME280;30462;52.446;-1.930;2023-04-19T01:37:18;101363.9883;;;;
44734;BME280;30462;52.446;-1.930;2023-04-19T01:38:18;101363.9258;;;;
44734;BME280;30462;52.446;-1.930;2023-04-19T01:39:18;101357.6914;;;;
44734;BME280;30462;52.446;-1.930;2023-04-19T01:40:18;101363.6484;;;;
44734;BME280;30462;52.446;-1.930;2023-04-19T01:41:19;101365.3828;;;;
44734;BME280;30462;52.446;-1.930;2023-04-19T01:42:17;101364.6406;;;;
44734;BME280;30462;52.446;-1.930;2023-04-19T01:43:18;101363.6328;;;;
44734;BME280;30462;52.446;-1.930;2023-04-19T01:44:18;101365.1602;;;;
44734;BME280;30462;52.446;-1.930;2023-04-19T01:45:19;101366.9414;;;;
44734;BME280;30462;52.446;-1.930;2023-04-19T01:46:18;101364.3164;;;;
44734;BME280;30462;52.446;-1.930;2023-04-19T01:47:18;101365.4727;;;;
44734;BME280;30462;52.446;-1.930;2023-04-19T01:48:18;101357.3516;;;;
44734;BME280;30462;52.446;-1.930;2023-04-19T01:49:18;101359.0117;;;;
44734;BME280;30462;52.446;-1.930;2023-04-19T01:50:18;101361.1797;;;;
44734;BME280;30462;52.446;-1.930;2023-04-19T01:51:18;101354.7188;;;;
44734;BME280;30462;52.446;-1.930;2023-04-19T01:52:18;101352.9531;;;;
44734;BME280;30462;52.446;-1.930;2023-04-19T01:53:17;101352.3594;;;;
44734;BME280;30462;52.446;-1.930;2023-04-19T01:54:18;101356.8008;;;;
44734;BME280;30462;52.446;-1.930;2023-04-19T01:55:18;101354.7969;;;;
44734;BME280;30462;52.446;-1.930;2023-04-19T01:56:18;101349.9844;;;;
44734;BME280;30462;52.446;-1.930;2023-04-19T01:57:18;101352.6406;;;;
44734;BME280;30462;52.446;-1.930;2023-04-19T01:58:18;101355.0156;;;;
44734;BME280;30462;52.446;-1.930;2023-04-19T01:59:18;101345.4258;;;;
44734;BME280;30462;52.446;-1.930;2023-04-19T02:00:18;101350.5938;;;;
44734;BME280;30462;52.446;-1.930;2023-04-19T02:01:18;101350.3242;;;;
44734;BME280;30462;52.446;-1.930;2023-04-19T02:02:18;101346.3164;;;;
44734;BME280;30462;52.446;-1.930;2023-04-19T02:03:18;101346.2266;;;;
44734;BME280;30462;52.446;-1.930;2023-04-19T02:04:18;101347.4141;;;;
44734;BME280;30462;52.446;-1.930;2023-04-19T02:05:18;101345.5;;;;
44734;BME280;30462;52.446;-1.930;2023-04-19T02:06:18;101346.3906;;;;
44734;BME280;30462;52.446;-1.930;2023-04-19T02:07:18;101348.8555;;;;
44734;BME280;30462;52.446;-1.930;2023-04-19T02:08:18;101354.9414;;;;
44734;BME280;30462;52.446;-1.930;2023-04-19T02:09:18;101349.6133;;;;
44734;BME280;30462;52.446;-1.930;2023-04-19T02:10:18;101349.7617;;;;
44734;BME280;30462;52.446;-1.930;2023-04-19T02:11:18;101348.5859;;;;
44734;BME280;30462;52.446;-1.930;2023-04-19T02:12:18;101344.7109;;;;
44734;BME280;30462;52.446;-1.930;2023-04-19T02:13:18;101348.7813;;;;
44734;BME280;30462;52.446;-1.930;2023-04-19T02:14:18;101347.6367;;;;
44734;BME280;30462;52.446;-1.930;2023-04-19T02:15:18;101347.0586;;;;
44734;BME280;30462;52.446;-1.930;2023-04-19T02:16:18;101354.8398;;;;
44734;BME280;30462;52.446;-1.930;2023-04-19T02:17:18;101344.6992;;;;
44734;BME280;30462;52.446;-1.930;2023-04-19T02:18:18;101347.9648;;;;
44734;BME280;30462;52.446;-1.930;2023-04-19T02:19:18;101347.418;;;;
44734;BME280;30462;52.446;-1.930;2023-04-19T02:20:18;101348.4258;;;;
44734;BME280;30462;52.446;-1.930;2023-04-19T02:21:18;101351.2773;;;;
44734;BME280;30462;52.446;-1.930;2023-04-19T02:22:17;101350.0156;;;;
44734;BME280;30462;52.446;-1.930;2023-04-19T02:23:18;101350.043;;;;
44734;BME280;30462;52.446;-1.930;2023-04-19T02:24:18;101349.6094;;;;
44734;BME280;30462;52.446;-1.930;2023-04-19T02:25:18;101346.9531;;;;
44734;BME280;30462;52.446;-1.930;2023-04-19T02:26:18;101343.8164;;;;
44734;BME280;30462;52.446;-1.930;2023-04-19T02:27:18;101349.9961;;;;
44734;BME280;30462;52.446;-1.930;2023-04-19T02:28:17;101350.1641;;;;
44734;BME280;30462;52.446;-1.930;2023-04-19T02:29:17;101346.4375;;;;
44734;BME280;30462;52.446;-1.930;2023-04-19T02:30:19;101347.5352;;;;
44734;BME280;30462;52.446;-1.930;2023-04-19T02:31:18;101345.6523;;;;
44734;BME280;30462;52.446;-1.930;2023-04-19T02:32:18;101344.7305;;;;
44734;BME280;30462;52.446;-1.930;2023-04-19T02:33:18;101341.4922;;;;
44734;BME280;30462;52.446;-1.930;2023-04-19T02:34:18;101344.2109;;;;
44734;BME280;30462;52.446;-1.930;2023-04-19T02:35:18;101344.5781;;;;
44734;BME280;30462;52.446;-1.930;2023-04-19T02:36:18;101342.1016;;;;
44734;BME280;30462;52.446;-1.930;2023-04-19T02:37:18;101340.2148;;;;
44734;BME280;30462;52.446;-1.930;2023-04-19T02:38:18;101343.1836;;;;
44734;BME280;30462;52.446;-1.930;2023-04-19T02:39:18;101336.2188;;;;
44734;BME280;30462;52.446;-1.930;2023-04-19T02:40:18;101336.7539;;;;
44734;BME280;30462;52.446;-1.930;2023-04-19T02:41:18;101342.8398;;;;
44734;BME280;30462;52.446;-1.930;2023-04-19T02:42:18;101336.7969;;;;
44734;BME280;30462;52.446;-1.930;2023-04-19T02:43:18;101333.918;;;;
44734;BME280;30462;52.446;-1.930;2023-04-19T02:44:17;101337.8555;;;;
44734;BME280;30462;52.446;-1.930;2023-04-19T02:45:18;101336.1563;;;;
44734;BME280;30462;52.446;-1.930;2023-04-19T02:46:18;101331.3789;;;;
44734;BME280;30462;52.446;-1.930;2023-04-19T02:47:18;101331.2773;;;;
44734;BME280;30462;52.446;-1.930;2023-04-19T02:48:18;101328.7656;;;;
44734;BME280;30462;52.446;-1.930;2023-04-19T02:49:18;101325.5977;;;;
44734;BME280;30462;52.446;-1.930;2023-04-19T02:50:17;101326.0273;;;;
44734;BME280;30462;52.446;-1.930;2023-04-19T02:51:17;101329.6953;;;;
44734;BME280;30462;52.446;-1.930;2023-04-19T02:52:17;101322.3242;;;;
44734;BME280;30462;52.446;-1.930;2023-04-19T02:53:17;101322.2266;;;;
44734;BME280;30462;52.446;-1.930;2023-04-19T02:54:18;101324.1563;;;;
44734;BME280;30462;52.446;-1.930;2023-04-19T02:55:18;101325.6563;;;;
44734;BME280;30462;52.446;-1.930;2023-04-19T02:56:18;101324.8203;;;;
44734;BME280;30462;52.446;-1.930;2023-04-19T02:57:18;101326.4102;;;;
44734;BME280;30462;52.446;-1.930;2023-04-19T02:58:18;101322.9805;;;;
44734;BME280;30462;52.446;-1.930;2023-04-19T02:59:18;101322.5352;;;;
44734;BME280;30462;52.446;-1.930;2023-04-19T03:00:17;101322.875;;;;
44734;BME280;30462;52.446;-1.930;2023-04-19T03:01:18;101323.6719;;;;
44734;BME280;30462;52.446;-1.930;2023-04-19T03:02:17;101321.3906;;;;
44734;BME280;30462;52.446;-1.930;2023-04-19T03:03:18;101319.1055;;;;
44734;BME280;30462;52.446;-1.930;2023-04-19T03:04:18;101319.9961;;;;
44734;BME280;30462;52.446;-1.930;2023-04-19T03:05:18;101322.8164;;;;
44734;BME280;30462;52.446;-1.930;2023-04-19T03:06:18;101320.4219;;;;
44734;BME280;30462;52.446;-1.930;2023-04-19T03:07:18;101319.5508;;;;
44734;BME280;30462;52.446;-1.930;2023-04-19T03:08:18;101321.0039;;;;
44734;BME280;30462;52.446;-1.930;2023-04-19T03:09:18;101323.7227;;;;
44734;BME280;30462;52.446;-1.930;2023-04-19T03:10:18;101319.6289;;;;
44734;BME280;30462;52.446;-1.930;2023-04-19T03:11:18;101318.3086;;;;
44734;BME280;30462;52.446;-1.930;2023-04-19T03:12:18;101315.1328;;;;
44734;BME280;30462;52.446;-1.930;2023-04-19T03:13:18;101315.1602;;;;
44734;BME280;30462;52.446;-1.930;2023-04-19T03:14:18;101310.5898;;;;
44734;BME280;30462;52.446;-1.930;2023-04-19T03:15:18;101315.2813;;;;
44734;BME280;30462;52.446;-1.930;2023-04-19T03:16:18;101313.0664;;;;
44734;BME280;30462;52.446;-1.930;2023-04-19T03:17:18;101316.6523;;;;
44734;BME280;30462;52.446;-1.930;2023-04-19T03:18:18;101314.9648;;;;
44734;BME280;30462;52.446;-1.930;2023-04-19T03:19:18;101311;;;;
44734;BME280;30462;52.446;-1.930;2023-04-19T03:20:18;101309.2031;;;;
44734;BME280;30462;52.446;-1.930;2023-04-19T03:21:18;101312.6211;;;;
44734;BME280;30462;52.446;-1.930;2023-04-19T03:22:18;101314.2969;;;;
44734;BME280;30462;52.446;-1.930;2023-04-19T03:23:17;101308.1094;;;;
44734;BME280;30462;52.446;-1.930;2023-04-19T03:24:18;101310.8398;;;;
44734;BME280;30462;52.446;-1.930;2023-04-19T03:25:18;101312.9375;;;;
44734;BME280;30462;52.446;-1.930;2023-04-19T03:26:18;101311.9688;;;;
44734;BME280;30462;52.446;-1.930;2023-04-19T03:27:18;101311.4492;;;;
44734;BME280;30462;52.446;-1.930;2023-04-19T03:28:18;101315.7305;;;;
44734;BME280;30462;52.446;-1.930;2023-04-19T03:29:18;101313.2188;;;;
44734;BME280;30462;52.446;-1.930;2023-04-19T03:30:18;101316.6641;;;;
44734;BME280;30462;52.446;-1.930;2023-04-19T03:31:18;101312.625;;;;
44734;BME280;30462;52.446;-1.930;2023-04-19T03:32:18;101307.5313;;;;
44734;BME280;30462;52.446;-1.930;2023-04-19T03:33:18;101317.2461;;;;
44734;BME280;30462;52.446;-1.930;2023-04-19T03:34:18;101310.7539;;;;
44734;BME280;30462;52.446;-1.930;2023-04-19T03:35:18;101316.9766;;;;
44734;BME280;30462;52.446;-1.930;2023-04-19T03:36:18;101316.0273;;;;
44734;BME280;30462;52.446;-1.930;2023-04-19T03:37:17;101316.3398;;;;
44734;BME280;30462;52.446;-1.930;2023-04-19T03:38:18;101311.5273;;;;
44734;BME280;30462;52.446;-1.930;2023-04-19T03:39:18;101311.6133;;;;
44734;BME280;30462;52.446;-1.930;2023-04-19T03:40:18;101313.6758;;;;
44734;BME280;30462;52.446;-1.930;2023-04-19T03:41:18;101310.3633;;;;
44734;BME280;30462;52.446;-1.930;2023-04-19T03:42:18;101312.3086;;;;
44734;BME280;30462;52.446;-1.930;2023-04-19T03:43:18;101313.6758;;;;
44734;BME280;30462;52.446;-1.930;2023-04-19T03:44:18;101315.5625;;;;
44734;BME280;30462;52.446;-1.930;2023-04-19T03:45:18;101310.1406;;;;
44734;BME280;30462;52.446;-1.930;2023-04-19T03:46:18;101311.8945;;;;
44734;BME280;30462;52.446;-1.930;2023-04-19T03:47:18;101310.7344;;;;
44734;BME280;30462;52.446;-1.930;2023-04-19T03:48:17;101311.9063;;;;
44734;BME280;30462;52.446;-1.930;2023-04-19T03:49:17;101306.3984;;;;
44734;BME280;30462;52.446;-1.930;2023-04-19T03:50:18;101306.2891;;;;
44734;BME280;30462;52.446;-1.930;2023-04-19T03:51:18;101307.9688;;;;
44734;BME280;30462;52.446;-1.930;2023-04-19T03:52:18;101307.3164;;;;
44734;BME280;30462;52.446;-1.930;2023-04-19T03:53:18;101310.418;;;;
44734;BME280;30462;52.446;-1.930;2023-04-19T03:54:18;101307.3945;;;;
44734;BME280;30462;52.446;-1.930;2023-04-19T03:55:18;101309.2031;;;;
44734;BME280;30462;52.446;-1.930;2023-04-19T03:56:18;101306.5898;;;;
44734;BME280;30462;52.446;-1.930;2023-04-19T03:57:18;101309.8125;;;;
44734;BME280;30462;52.446;-1.930;2023-04-19T03:58:18;101309.957;;;;
44734;BME280;30462;52.446;-1.930;2023-04-19T03:59:18;101310.8633;;;;
44734;BME280;30462;52.446;-1.930;2023-04-19T04:00:18;101311.5898;;;;
44734;BME280;30462;52.446;-1.930;2023-04-19T04:01:18;101316.9609;;;;
44734;BME280;30462;52.446;-1.930;2023-04-19T04:02:17;101313.0859;;;;
44734;BME280;30462;52.446;-1.930;2023-04-19T04:03:18;101310.1992;;;;
44734;BME280;30462;52.446;-1.930;2023-04-19T04:04:18;101311.5703;;;;
44734;BME280;30462;52.446;-1.930;2023-04-19T04:05:18;101314.7188;;;;
44734;BME280;30462;52.446;-1.930;2023-04-19T04:06:18;101318.1211;;;;
44734;BME280;30462;52.446;-1.930;2023-04-19T04:07:18;101311.4219;;;;
44734;BME280;30462;52.446;-1.930;2023-04-19T04:08:18;101311.293;;;;
44734;BME280;30462;52.446;-1.930;2023-04-19T04:09:18;101319.5469;;;;
44734;BME280;30462;52.446;-1.930;2023-04-19T04:10:18;101313.6055;;;;
44734;BME280;30462;52.446;-1.930;2023-04-19T04:11:18;101314.4219;;;;
44734;BME280;30462;52.446;-1.930;2023-04-19T04:12:18;101315.375;;;;
44734;BME280;30462;52.446;-1.930;2023-04-19T04:13:18;101319.7227;;;;
44734;BME280;30462;52.446;-1.930;2023-04-19T04:14:18;101313.0156;;;;
44734;BME280;30462;52.446;-1.930;2023-04-19T04:15:18;101313.4297;;;;
44734;BME280;30462;52.446;-1.930;2023-04-19T04:16:17;101311.0547;;;;
44734;BME280;30462;52.446;-1.930;2023-04-19T04:17:17;101313.0352;;;;
44734;BME280;30462;52.446;-1.930;2023-04-19T04:18:18;101313.8281;;;;
44734;BME280;30462;52.446;-1.930;2023-04-19T04:19:18;101316.4727;;;;
44734;BME280;30462;52.446;-1.930;2023-04-19T04:20:18;101309.3867;;;;
44734;BME280;30462;52.446;-1.930;2023-04-19T04:21:18;101311.6172;;;;
44734;BME280;30462;52.446;-1.930;2023-04-19T04:22:18;101314.082;;;;
44734;BME280;30462;52.446;-1.930;2023-04-19T04:23:17;101311.7188;;;;
44734;BME280;30462;52.446;-1.930;2023-04-19T04:24:18;101311.1875;;;;
44734;BME280;30462;52.446;-1.930;2023-04-19T04:25:18;101309.9102;;;;
44734;BME280;30462;52.446;-1.930;2023-04-19T04:26:18;101306.2383;;;;
44734;BME280;30462;52.446;-1.930;2023-04-19T04:27:18;101309.1914;;;;
44734;BME280;30462;52.446;-1.930;2023-04-19T04:28:18;101309.3711;;;;
44734;BME280;30462;52.446;-1.930;2023-04-19T04:29:18;101308.3008;;;;
44734;BME280;30462;52.446;-1.930;2023-04-19T04:30:18;101311.8242;;;;
44734;BME280;30462;52.446;-1.930;2023-04-19T04:31:17;101304.9453;;;;
44734;BME280;30462;52.446;-1.930;2023-04-19T04:32:18;101309.5;;;;
44734;BME280;30462;52.446;-1.930;2023-04-19T04:33:18;101310.8242;;;;
44734;BME280;30462;52.446;-1.930;2023-04-19T04:34:18;101308.8047;;;;
44734;BME280;30462;52.446;-1.930;2023-04-19T04:35:18;101310.9883;;;;
44734;BME280;30462;52.446;-1.930;2023-04-19T04:36:18;101308.4375;;;;
44734;BME280;30462;52.446;-1.930;2023-04-19T04:37:18;101309.3555;;;;
44734;BME280;30462;52.446;-1.930;2023-04-19T04:38:17;101310.6641;;;;
44734;BME280;30462;52.446;-1.930;2023-04-19T04:39:18;101305.4961;;;;
44734;BME280;30462;52.446;-1.930;2023-04-19T04:40:18;101310.6055;;;;
44734;BME280;30462;52.446;-1.930;2023-04-19T04:41:18;101307.2344;;;;
44734;BME280;30462;52.446;-1.930;2023-04-19T04:42:18;101306.0195;;;;
44734;BME280;30462;52.446;-1.930;2023-04-19T04:43:18;101307.8867;;;;
44734;BME280;30462;52.446;-1.930;2023-04-19T04:44:18;101307.5352;;;;
44734;BME280;30462;52.446;-1.930;2023-04-19T04:45:18;101307.8008;;;;
44734;BME280;30462;52.446;-1.930;2023-04-19T04:46:18;101302.2422;;;;
44734;BME280;30462;52.446;-1.930;2023-04-19T04:47:19;101306.0859;;;;
44734;BME280;30462;52.446;-1.930;2023-04-19T04:48:18;101303.9375;;;;
44734;BME280;30462;52.446;-1.930;2023-04-19T04:49:18;101301.6211;;;;
44734;BME280;30462;52.446;-1.930;2023-04-19T04:50:18;101305.4531;;;;
44734;BME280;30462;52.446;-1.930;2023-04-19T04:51:18;101301.8438;;;;
44734;BME280;30462;52.446;-1.930;2023-04-19T04:52:18;101302.7383;;;;
44734;BME280;30462;52.446;-1.930;2023-04-19T04:53:18;101299.6172;;;;
44734;BME280;30462;52.446;-1.930;2023-04-19T04:54:18;101304.2656;;;;
44734;BME280;30462;52.446;-1.930;2023-04-19T04:55:18;101303.1484;;;;
44734;BME280;30462;52.446;-1.930;2023-04-19T04:56:18;101303.0313;;;;
44734;BME280;30462;52.446;-1.930;2023-04-19T04:57:18;101302.125;;;;
44734;BME280;30462;52.446;-1.930;2023-04-19T04:58:18;101300.0273;;;;
44734;BME280;30462;52.446;-1.930;2023-04-19T04:59:17;101304.9258;;;;
44734;BME280;30462;52.446;-1.930;2023-04-19T05:00:18;101303.4297;;;;
44734;BME280;30462;52.446;-1.930;2023-04-19T05:01:18;101302.3398;;;;
44734;BME280;30462;52.446;-1.930;2023-04-19T05:02:18;101299.6563;;;;
44734;BME280;30462;52.446;-1.930;2023-04-19T05:03:18;101299.4609;;;;
44734;BME280;30462;52.446;-1.930;2023-04-19T05:04:18;101303.6836;;;;
44734;BME280;30462;52.446;-1.930;2023-04-19T05:05:18;101303.3398;;;;
44734;BME280;30462;52.446;-1.930;2023-04-19T05:06:18;101297.4297;;;;
44734;BME280;30462;52.446;-1.930;2023-04-19T05:07:18;101303.1328;;;;
44734;BME280;30462;52.446;-1.930;2023-04-19T05:08:18;101305.0352;;;;
44734;BME280;30462;52.446;-1.930;2023-04-19T05:09:19;101300.7891;;;;
44734;BME280;30462;52.446;-1.930;2023-04-19T05:10:18;101304.8477;;;;
44734;BME280;30462;52.446;-1.930;2023-04-19T05:11:18;101305.3672;;;;
44734;BME280;30462;52.446;-1.930;2023-04-19T05:12:18;101301.9648;;;;
44734;BME280;30462;52.446;-1.930;2023-04-19T05:13:18;101302.707;;;;
44734;BME280;30462;52.446;-1.930;2023-04-19T05:14:18;101300.4844;;;;
44734;BME280;30462;52.446;-1.930;2023-04-19T05:15:18;101300.0586;;;;
44734;BME280;30462;52.446;-1.930;2023-04-19T05:16:18;101307.3477;;;;
44734;BME280;30462;52.446;-1.930;2023-04-19T05:17:18;101309.4297;;;;
44734;BME280;30462;52.446;-1.930;2023-04-19T05:18:18;101308.9453;;;;
44734;BME280;30462;52.446;-1.930;2023-04-19T05:19:18;101305.9297;;;;
44734;BME280;30462;52.446;-1.930;2023-04-19T05:20:18;101309.6133;;;;
44734;BME280;30462;52.446;-1.930;2023-04-19T05:21:18;101310.75;;;;
44734;BME280;30462;52.446;-1.930;2023-04-19T05:22:18;101309.8438;;;;
44734;BME280;30462;52.446;-1.930;2023-04-19T05:23:18;101308.4922;;;;
44734;BME280;30462;52.446;-1.930;2023-04-19T05:24:18;101310.7734;;;;
44734;BME280;30462;52.446;-1.930;2023-04-19T05:25:18;101312.1406;;;;
44734;BME280;30462;52.446;-1.930;2023-04-19T05:26:18;101311.3711;;;;
44734;BME280;30462;52.446;-1.930;2023-04-19T05:27:18;101314.418;;;;
44734;BME280;30462;52.446;-1.930;2023-04-19T05:28:18;101313.9453;;;;
44734;BME280;30462;52.446;-1.930;2023-04-19T05:29:18;101307.6367;;;;
44734;BME280;30462;52.446;-1.930;2023-04-19T05:30:18;101313.0195;;;;
44734;BME280;30462;52.446;-1.930;2023-04-19T05:31:18;101315.7266;;;;
44734;BME280;30462;52.446;-1.930;2023-04-19T05:32:18;101317.0586;;;;
44734;BME280;30462;52.446;-1.930;2023-04-19T05:33:17;101316.2891;;;;
44734;BME280;30462;52.446;-1.930;2023-04-19T05:34:18;101314.0664;;;;
44734;BME280;30462;52.446;-1.930;2023-04-19T05:35:18;101313.5859;;;;
44734;BME280;30462;52.446;-1.930;2023-04-19T05:36:18;101313.5703;;;;
44734;BME280;30462;52.446;-1.930;2023-04-19T05:37:17;101320.7734;;;;
44734;BME280;30462;52.446;-1.930;2023-04-19T05:38:17;101319.0547;;;;
44734;BME280;30462;52.446;-1.930;2023-04-19T05:39:18;101311.1797;;;;
44734;BME280;30462;52.446;-1.930;2023-04-19T05:40:18;101319.6172;;;;
44734;BME280;30462;52.446;-1.930;2023-04-19T05:41:19;101317.9844;;;;
44734;BME280;30462;52.446;-1.930;2023-04-19T05:42:18;101318.1875;;;;
44734;BME280;30462;52.446;-1.930;2023-04-19T05:43:18;101317.3047;;;;
44734;BME280;30462;52.446;-1.930;2023-04-19T05:44:18;101316.8516;;;;
44734;BME280;30462;52.446;-1.930;2023-04-19T05:45:20;101315.6289;;;;